createdAt,value
2022-07-28T00:00:44.099Z,62.10
2022-07-28T00:03:10.914Z,62.20
2022-07-28T00:05:37.859Z,62.00
2022-07-28T00:08:05.328Z,62.60
2022-07-28T00:10:32.373Z,62.90
2022-07-28T00:12:59.948Z,63.30
2022-07-28T00:15:28.014Z,63.50
2022-07-28T00:17:54.818Z,64.30
2022-07-28T00:20:21.693Z,64.30
2022-07-28T00:22:48.420Z,64.20
2022-07-28T00:25:15.284Z,64.50
2022-07-28T00:27:42.159Z,64.60
2022-07-28T00:30:10.053Z,64.60
2022-07-28T00:32:37.693Z,65.30
2022-07-28T00:35:05.098Z,65.30
2022-07-28T00:37:39.720Z,65.70
2022-07-28T00:40:08.415Z,65.60
2022-07-28T00:42:35.132Z,65.70
2022-07-28T00:45:01.910Z,65.70
2022-07-28T00:47:33.535Z,65.50
2022-07-28T00:50:01.924Z,65.60
2022-07-28T00:52:28.807Z,65.30
2022-07-28T00:54:56.051Z,66.10
2022-07-28T00:57:22.749Z,65.90
2022-07-28T00:59:49.547Z,66.70
2022-07-28T01:02:16.546Z,66.80
2022-07-28T01:04:43.462Z,67.30
2022-07-28T01:07:35.338Z,67.40
2022-07-28T01:10:36.170Z,67.60
2022-07-28T01:13:20.753Z,67.80
2022-07-28T01:16:03.032Z,67.80
2022-07-28T01:18:36.210Z,68.10
2022-07-28T01:21:09.042Z,67.70
2022-07-28T01:23:54.193Z,68.10
2022-07-28T01:26:30.157Z,68.30
2022-07-28T01:29:09.037Z,68.10
2022-07-28T01:31:52.125Z,67.30
2022-07-28T01:34:25.799Z,66.90
2022-07-28T01:36:58.220Z,67.60
2022-07-28T01:39:29.147Z,67.10
2022-07-28T01:41:58.170Z,67.80
2022-07-28T01:44:26.574Z,67.60
2022-07-28T01:46:54.602Z,67.70
2022-07-28T01:49:23.074Z,68.30
2022-07-28T01:51:51.284Z,68.50
2022-07-28T01:54:22.010Z,68.60
2022-07-28T01:56:50.965Z,67.70
2022-07-28T01:59:19.305Z,68.90
2022-07-28T02:01:48.533Z,68.70
2022-07-28T02:04:21.210Z,68.80
2022-07-28T02:06:49.185Z,69.50
2022-07-28T02:09:18.312Z,69.50
2022-07-28T02:11:47.772Z,69.90
2022-07-28T02:14:18.903Z,69.50
2022-07-28T02:16:49.020Z,69.50
2022-07-28T02:19:18.352Z,69.90
2022-07-28T02:21:47.757Z,69.40
2022-07-28T02:24:17.585Z,70.50
2022-07-28T02:26:50.479Z,70.40
2022-07-28T02:29:48.112Z,69.70
2022-07-28T02:32:30.151Z,69.50
2022-07-28T02:35:01.944Z,70.10
2022-07-28T02:37:37.517Z,71.20
2022-07-28T02:40:08.659Z,72.00
2022-07-28T02:42:36.919Z,71.80
2022-07-28T02:45:07.148Z,71.40
2022-07-28T02:47:40.084Z,71.10
2022-07-28T02:50:08.461Z,72.00
2022-07-28T02:52:36.333Z,72.20
2022-07-28T02:55:03.949Z,71.90
2022-07-28T02:57:31.190Z,71.90
2022-07-28T02:59:58.729Z,72.30
2022-07-28T03:02:26.036Z,71.20
2022-07-28T03:04:59.699Z,71.00
2022-07-28T03:07:31.433Z,72.40
2022-07-28T03:09:59.697Z,71.60
2022-07-28T03:12:26.882Z,71.80
2022-07-28T03:14:53.970Z,72.40
2022-07-28T03:17:20.852Z,72.00
2022-07-28T03:19:47.636Z,70.70
2022-07-28T03:22:14.946Z,71.30
2022-07-28T03:24:51.985Z,71.40
2022-07-28T03:27:31.119Z,71.70
2022-07-28T03:30:08.305Z,72.00
2022-07-28T03:32:40.331Z,71.40
2022-07-28T03:35:07.705Z,71.90
2022-07-28T03:37:43.582Z,72.50
2022-07-28T03:40:12.377Z,73.20
2022-07-28T03:42:40.966Z,73.00
2022-07-28T03:45:08.359Z,73.60
2022-07-28T03:47:35.031Z,73.50
2022-07-28T03:50:01.750Z,71.10
2022-07-28T03:52:28.480Z,70.90
2022-07-28T03:54:55.162Z,71.00
2022-07-28T03:57:22.714Z,71.20
2022-07-28T03:59:49.470Z,72.30
2022-07-28T04:02:16.257Z,71.80
2022-07-28T04:04:43.066Z,71.60
2022-07-28T04:07:09.763Z,71.20
2022-07-28T04:09:36.447Z,72.00
2022-07-28T04:12:03.175Z,71.70
2022-07-28T04:14:29.910Z,71.60
2022-07-28T04:16:56.751Z,71.40
2022-07-28T04:19:23.504Z,70.80
2022-07-28T04:21:50.255Z,70.30
2022-07-28T04:24:17.224Z,70.10
2022-07-28T04:26:44.371Z,71.30
2022-07-28T04:29:11.181Z,71.00
2022-07-28T04:31:38.071Z,70.50
2022-07-28T04:34:04.828Z,71.10
2022-07-28T04:36:32.356Z,72.20
2022-07-28T04:38:59.412Z,71.30
2022-07-28T04:41:27.253Z,71.00
2022-07-28T04:43:53.982Z,71.90
2022-07-28T04:46:20.793Z,72.10
2022-07-28T04:48:47.668Z,72.90
2022-07-28T04:51:14.515Z,72.80
2022-07-28T04:53:41.325Z,72.70
2022-07-28T04:56:08.040Z,72.70
2022-07-28T04:58:35.368Z,72.90
2022-07-28T05:01:02.252Z,72.40
2022-07-28T05:03:32.806Z,72.10
2022-07-28T05:06:02.626Z,71.80
2022-07-28T05:08:29.307Z,71.80
2022-07-28T05:10:56.633Z,71.50
2022-07-28T05:13:24.197Z,71.30
2022-07-28T05:15:51.208Z,72.00
2022-07-28T05:18:18.168Z,72.40
2022-07-28T05:20:44.857Z,72.80
2022-07-28T05:23:12.743Z,73.00
2022-07-28T05:25:39.526Z,72.90
2022-07-28T05:28:06.234Z,72.60
2022-07-28T05:30:32.983Z,72.10
2022-07-28T05:33:01.767Z,72.50
2022-07-28T05:35:28.753Z,72.00
2022-07-28T05:37:55.564Z,71.60
2022-07-28T05:40:22.303Z,71.40
2022-07-28T05:42:49.074Z,70.90
2022-07-28T05:45:17.599Z,72.00
2022-07-28T05:47:52.100Z,72.40
2022-07-28T05:50:25.245Z,72.30
2022-07-28T05:52:52.464Z,72.50
2022-07-28T05:55:19.688Z,73.40
2022-07-28T05:57:47.080Z,73.50
2022-07-28T06:00:19.644Z,72.90
2022-07-28T06:02:47.384Z,72.50
2022-07-28T06:05:16.995Z,72.70
2022-07-28T06:07:45.008Z,72.70
2022-07-28T06:10:14.421Z,72.60
2022-07-28T06:12:46.975Z,72.80
2022-07-28T06:15:14.857Z,72.50
2022-07-28T06:17:41.856Z,71.90
2022-07-28T06:20:09.456Z,71.50
2022-07-28T06:22:48.009Z,71.40
2022-07-28T06:25:16.727Z,71.10
2022-07-28T06:27:48.850Z,70.70
2022-07-28T06:30:16.624Z,70.40
2022-07-28T06:32:43.946Z,70.00
2022-07-28T06:35:13.962Z,69.40
2022-07-28T06:37:41.034Z,70.00
2022-07-28T06:40:08.978Z,69.70
2022-07-28T06:42:35.707Z,69.30
2022-07-28T06:45:02.481Z,69.30
2022-07-28T06:47:29.178Z,68.90
2022-07-28T06:49:55.891Z,69.50
2022-07-28T06:52:22.832Z,69.30
2022-07-28T06:54:51.697Z,69.10
2022-07-28T06:57:20.815Z,68.10
2022-07-28T06:59:48.561Z,68.80
2022-07-28T07:02:16.385Z,68.20
2022-07-28T07:04:45.416Z,67.50
2022-07-28T07:07:16.864Z,67.90
2022-07-28T07:09:44.427Z,67.20
2022-07-28T07:12:11.246Z,67.10
2022-07-28T07:14:38.188Z,66.40
2022-07-28T07:17:04.935Z,66.50
2022-07-28T07:19:31.649Z,66.30
2022-07-28T07:21:58.346Z,66.30
2022-07-28T07:24:25.082Z,67.00
2022-07-28T07:26:51.773Z,66.90
2022-07-28T07:29:19.809Z,65.30
2022-07-28T07:31:46.630Z,64.70
2022-07-28T07:34:19.447Z,65.00
2022-07-28T07:36:46.302Z,64.70
2022-07-28T07:39:13.398Z,64.00
2022-07-28T07:41:40.150Z,63.30
2022-07-28T07:44:06.863Z,63.40
2022-07-28T07:46:33.899Z,63.10
2022-07-28T07:49:00.796Z,63.00
2022-07-28T07:51:28.074Z,63.50
2022-07-28T07:53:54.859Z,61.90
2022-07-28T07:56:21.687Z,62.10
2022-07-28T07:58:53.651Z,61.80
2022-07-28T08:01:23.265Z,62.10
2022-07-28T08:03:50.331Z,61.40
2022-07-28T08:06:17.135Z,61.50
2022-07-28T08:08:53.166Z,61.30
2022-07-28T08:11:19.954Z,61.50
2022-07-28T08:13:46.648Z,61.40
2022-07-28T08:16:13.394Z,62.10
2022-07-28T08:18:40.133Z,62.10
2022-07-28T08:21:06.850Z,61.40
2022-07-28T08:23:33.574Z,60.80
2022-07-28T08:26:00.310Z,62.80
2022-07-28T08:28:27.084Z,62.00
2022-07-28T08:30:53.883Z,62.50
2022-07-28T08:33:21.747Z,62.10
2022-07-28T08:35:49.482Z,62.30
2022-07-28T08:38:16.504Z,62.70
2022-07-28T08:40:48.335Z,62.50
2022-07-28T08:43:30.426Z,61.70
2022-07-28T08:46:01.154Z,62.70
2022-07-28T08:48:31.433Z,61.10
2022-07-28T08:51:06.767Z,61.30
2022-07-28T08:53:35.739Z,61.70
2022-07-28T08:56:05.256Z,62.30
2022-07-28T08:58:34.295Z,61.80
2022-07-28T09:01:01.760Z,60.80
2022-07-28T09:03:29.389Z,60.50
2022-07-28T09:05:57.484Z,61.00
2022-07-28T09:08:24.736Z,60.80
2022-07-28T09:10:51.772Z,60.20
2022-07-28T09:13:19.217Z,60.80
2022-07-28T09:15:47.434Z,59.60
2022-07-28T09:18:15.724Z,59.80
2022-07-28T09:20:44.040Z,58.80
2022-07-28T09:23:43.213Z,60.10
2022-07-28T09:26:11.803Z,59.30
2022-07-28T09:28:55.181Z,58.20
2022-07-28T09:31:23.905Z,60.20
2022-07-28T09:34:04.394Z,58.90
2022-07-28T09:36:38.835Z,59.00
2022-07-28T09:39:06.078Z,59.30
2022-07-28T09:41:49.693Z,59.30
2022-07-28T09:44:19.645Z,58.50
2022-07-28T09:46:46.619Z,58.50
2022-07-28T09:49:13.568Z,58.10
2022-07-28T09:51:40.521Z,59.40
2022-07-28T09:54:13.084Z,58.60
2022-07-28T09:56:45.327Z,58.10
2022-07-28T09:59:13.973Z,58.60
2022-07-28T10:01:55.437Z,58.40
2022-07-28T10:04:43.227Z,57.30
2022-07-28T10:07:14.134Z,60.90
2022-07-28T10:09:41.497Z,57.80
2022-07-28T10:12:21.731Z,57.50
2022-07-28T10:14:51.659Z,58.30
2022-07-28T10:17:26.773Z,58.20
2022-07-28T10:19:55.085Z,57.70
2022-07-28T10:22:23.534Z,56.40
2022-07-28T10:24:53.288Z,56.70
2022-07-28T10:27:25.718Z,57.20
2022-07-28T10:29:55.773Z,57.00
2022-07-28T10:32:22.996Z,57.10
2022-07-28T10:34:55.950Z,57.20
2022-07-28T10:37:25.576Z,56.50
2022-07-28T10:40:09.828Z,56.70
2022-07-28T10:42:39.362Z,57.30
2022-07-28T10:45:08.000Z,56.00
2022-07-28T10:47:35.879Z,56.50
2022-07-28T10:50:04.087Z,55.50
2022-07-28T10:52:46.802Z,56.20
2022-07-28T10:55:39.078Z,57.20
2022-07-28T10:58:27.047Z,56.20
2022-07-28T11:00:58.177Z,56.30
2022-07-28T11:03:44.083Z,55.20
2022-07-28T11:06:36.770Z,54.40
2022-07-28T11:09:15.762Z,54.70
2022-07-28T11:11:50.591Z,54.80
2022-07-28T11:14:26.154Z,54.30
2022-07-28T11:17:10.116Z,54.40
2022-07-28T11:20:07.228Z,54.00
2022-07-28T11:22:32.778Z,54.30
2022-07-28T11:25:19.021Z,54.20
2022-07-28T11:27:50.399Z,52.90
2022-07-28T11:30:28.582Z,51.80
2022-07-28T11:32:55.357Z,51.90
2022-07-28T11:35:26.707Z,53.20
2022-07-28T11:38:02.341Z,54.10
2022-07-28T11:40:33.540Z,53.30
2022-07-28T11:43:35.382Z,52.90
2022-07-28T11:46:07.041Z,52.20
2022-07-28T11:48:40.395Z,51.80
2022-07-28T11:51:07.246Z,51.40
2022-07-28T11:53:39.455Z,51.80
2022-07-28T11:56:22.209Z,51.20
2022-07-28T11:58:59.879Z,50.60
2022-07-28T12:01:27.138Z,50.50
2022-07-28T12:03:56.812Z,51.40
2022-07-28T12:06:35.380Z,49.80
2022-07-28T12:09:06.933Z,49.20
2022-07-28T12:11:36.018Z,49.00
2022-07-28T12:14:05.990Z,49.20
2022-07-28T12:16:34.714Z,48.30
2022-07-28T12:19:02.353Z,48.50
2022-07-28T12:21:46.508Z,48.40
2022-07-28T12:24:19.271Z,48.50
2022-07-28T12:26:49.583Z,47.40
2022-07-28T12:29:20.476Z,48.20
2022-07-28T12:31:55.704Z,48.30
2022-07-28T12:34:26.737Z,47.60
2022-07-28T12:36:58.387Z,47.50
2022-07-28T12:39:25.971Z,47.00
2022-07-28T12:42:06.869Z,48.00
2022-07-28T12:44:37.457Z,47.90
2022-07-28T12:47:07.835Z,46.50
2022-07-28T12:49:36.167Z,48.00
2022-07-28T12:52:23.271Z,46.30
2022-07-28T12:54:54.566Z,46.60
2022-07-28T12:57:54.556Z,45.70
2022-07-28T13:00:27.065Z,45.20
2022-07-28T13:02:56.427Z,44.40
2022-07-28T13:05:30.310Z,43.70
2022-07-28T13:08:05.848Z,43.60
2022-07-28T13:10:33.198Z,43.00
2022-07-28T13:13:05.888Z,43.30
2022-07-28T13:15:32.941Z,42.90
2022-07-28T13:18:00.058Z,42.20
2022-07-28T13:20:27.309Z,42.50
2022-07-28T13:22:54.612Z,43.00
2022-07-28T13:25:21.837Z,42.20
2022-07-28T13:27:55.130Z,42.20
2022-07-28T13:30:23.472Z,42.70
2022-07-28T13:32:50.459Z,42.50
2022-07-28T13:35:18.776Z,41.80
2022-07-28T13:37:45.706Z,41.10
2022-07-28T13:40:12.822Z,41.00
2022-07-28T13:42:39.537Z,41.80
2022-07-28T13:45:06.739Z,41.30
2022-07-28T13:47:35.473Z,41.50
2022-07-28T13:50:06.171Z,41.60
2022-07-28T13:52:35.253Z,41.70
2022-07-28T13:55:06.144Z,40.80
2022-07-28T13:57:36.725Z,41.20
2022-07-28T14:00:08.380Z,40.40
2022-07-28T14:02:35.894Z,40.40
2022-07-28T14:05:04.146Z,39.90
2022-07-28T14:07:30.895Z,39.70
2022-07-28T14:09:58.563Z,39.20
2022-07-28T14:12:26.262Z,38.50
2022-07-28T14:14:52.944Z,37.60
2022-07-28T14:20:10.484Z,38.20
2022-07-28T14:22:37.231Z,38.00
2022-07-28T14:25:04.349Z,39.50
2022-07-28T14:27:31.117Z,39.70
2022-07-28T14:29:58.047Z,38.80
2022-07-28T14:32:24.836Z,38.80
2022-07-28T14:34:51.738Z,39.10
2022-07-28T14:37:20.253Z,38.30
2022-07-28T14:39:46.972Z,38.50
2022-07-28T14:42:13.779Z,38.00
2022-07-28T14:44:40.505Z,37.90
2022-07-28T14:47:07.486Z,38.30
2022-07-28T14:49:37.016Z,38.20
2022-07-28T14:52:04.146Z,38.10
2022-07-28T14:54:32.832Z,38.60
2022-07-28T14:56:59.563Z,39.50
2022-07-28T14:59:26.315Z,38.90
2022-07-28T15:01:53.127Z,39.40
2022-07-28T15:04:19.974Z,38.30
2022-07-28T15:06:47.350Z,38.30
2022-07-28T15:09:14.834Z,38.40
2022-07-28T15:11:42.049Z,38.20
2022-07-28T15:14:08.790Z,39.40
2022-07-28T15:16:36.022Z,39.50
2022-07-28T15:19:02.902Z,39.00
2022-07-28T15:21:34.312Z,38.80
2022-07-28T15:24:03.645Z,38.80
2022-07-28T15:26:30.525Z,39.00
2022-07-28T15:28:57.549Z,38.60
2022-07-28T15:31:27.198Z,38.60
2022-07-28T15:33:58.055Z,40.20
2022-07-28T15:36:25.716Z,40.40
2022-07-28T15:38:53.667Z,39.30
2022-07-28T15:41:20.748Z,39.30
2022-07-28T15:43:47.646Z,40.20
2022-07-28T15:46:14.788Z,40.00
2022-07-28T15:48:44.548Z,40.10
2022-07-28T15:51:11.800Z,40.70
2022-07-28T15:53:38.857Z,41.40
2022-07-28T15:56:05.898Z,41.20
2022-07-28T15:58:33.089Z,40.70
2022-07-28T16:01:01.781Z,40.70
2022-07-28T16:03:29.723Z,40.30
2022-07-28T16:05:56.962Z,40.20
2022-07-28T16:08:23.863Z,40.20
2022-07-28T16:10:52.348Z,39.00
2022-07-28T16:13:28.590Z,38.10
2022-07-28T16:16:14.877Z,39.00
2022-07-28T16:18:43.757Z,40.00
2022-07-28T16:21:11.508Z,40.70
2022-07-28T16:23:38.356Z,41.70
2022-07-28T16:26:07.875Z,41.30
2022-07-28T16:28:35.219Z,40.30
2022-07-28T16:31:02.240Z,38.80
2022-07-28T16:33:33.330Z,38.80
2022-07-28T16:36:01.334Z,37.80
2022-07-28T16:38:28.105Z,38.70
2022-07-28T16:40:54.861Z,38.50
2022-07-28T16:43:21.561Z,38.30
2022-07-28T16:45:48.434Z,38.30
2022-07-28T16:48:15.246Z,38.70
2022-07-28T16:50:45.773Z,38.30
2022-07-28T16:53:13.839Z,37.70
2022-07-28T16:55:42.107Z,37.40
2022-07-28T16:58:08.909Z,37.40
2022-07-28T17:00:35.944Z,36.80
2022-07-28T17:03:02.740Z,37.30
2022-07-28T17:05:29.490Z,37.20
2022-07-28T17:07:56.208Z,37.30
2022-07-28T17:10:27.252Z,37.10
2022-07-28T17:12:54.879Z,38.10
2022-07-28T17:15:23.145Z,38.20
2022-07-28T17:17:54.132Z,38.90
2022-07-28T17:20:21.157Z,39.10
2022-07-28T17:22:48.254Z,40.30
2022-07-28T17:25:43.928Z,40.50
2022-07-28T17:28:02.770Z,40.90
2022-07-28T17:30:31.608Z,42.10
2022-07-28T17:33:07.891Z,43.20
2022-07-28T17:35:36.261Z,44.60
2022-07-28T17:38:04.536Z,45.30
2022-07-28T17:40:32.526Z,45.70
2022-07-28T17:42:59.494Z,46.50
2022-07-28T17:45:26.210Z,47.20
2022-07-28T17:47:52.930Z,47.80
2022-07-28T17:50:19.693Z,48.10
2022-07-28T17:52:46.962Z,48.30
2022-07-28T17:55:55.815Z,48.30
2022-07-28T17:58:31.966Z,48.50
2022-07-28T18:01:09.790Z,48.80
2022-07-28T18:03:57.608Z,49.00
2022-07-28T18:06:32.425Z,49.60
2022-07-28T18:09:05.723Z,49.80
2022-07-28T18:11:33.684Z,49.90
2022-07-28T18:14:04.584Z,50.30
2022-07-28T18:16:34.273Z,50.40
2022-07-28T18:19:02.387Z,50.90
2022-07-28T18:21:29.283Z,50.90
2022-07-28T18:23:55.987Z,51.00
2022-07-28T18:26:22.821Z,51.20
2022-07-28T18:28:49.810Z,50.70
2022-07-28T18:31:16.681Z,50.40
2022-07-28T18:33:43.989Z,50.80
2022-07-28T18:36:10.675Z,50.90
2022-07-28T18:38:37.414Z,51.00
2022-07-28T18:41:04.206Z,50.50
2022-07-28T18:43:31.129Z,49.90
2022-07-28T18:45:57.930Z,49.90
2022-07-28T18:48:25.508Z,49.80
2022-07-28T18:50:52.524Z,49.90
2022-07-28T18:53:19.386Z,49.80
2022-07-28T18:55:46.167Z,49.40
2022-07-28T18:58:12.848Z,51.00
2022-07-28T19:00:39.626Z,49.30
2022-07-28T19:03:06.371Z,49.10
2022-07-28T19:05:36.445Z,49.60
2022-07-28T19:08:04.762Z,50.00
2022-07-28T19:10:32.437Z,50.30
2022-07-28T19:12:59.537Z,51.00
2022-07-28T19:15:26.603Z,51.50
2022-07-28T19:18:11.210Z,51.70
2022-07-28T19:20:44.084Z,51.70
2022-07-28T19:23:10.935Z,51.60
2022-07-28T19:25:39.269Z,51.70
2022-07-28T19:28:06.542Z,51.60
2022-07-28T19:30:33.975Z,52.00
2022-07-28T19:33:00.878Z,52.40
2022-07-28T19:35:27.799Z,52.60
2022-07-28T19:37:59.565Z,52.60
2022-07-28T19:40:29.168Z,52.90
2022-07-28T19:42:57.477Z,52.80
2022-07-28T19:45:25.217Z,52.70
2022-07-28T19:47:52.094Z,53.10
2022-07-28T19:50:19.024Z,53.40
2022-07-28T19:52:46.041Z,53.60
2022-07-28T19:55:17.709Z,54.50
2022-07-28T19:57:47.507Z,55.00
2022-07-28T20:00:17.301Z,55.80
2022-07-28T20:02:44.187Z,55.30
2022-07-28T20:05:11.088Z,56.00
2022-07-28T20:07:38.111Z,57.90
2022-07-28T20:10:05.723Z,58.30
2022-07-28T20:12:36.359Z,58.40
2022-07-28T20:15:07.660Z,58.90
2022-07-28T20:17:39.291Z,60.30
2022-07-28T20:20:12.166Z,61.90
2022-07-28T20:22:39.724Z,63.10
2022-07-28T20:25:09.526Z,62.90
2022-07-28T20:27:40.275Z,62.80
2022-07-28T20:30:09.623Z,66.30
2022-07-28T20:32:37.535Z,67.70
2022-07-28T20:35:05.804Z,69.60
2022-07-28T20:37:36.898Z,69.70
2022-07-28T20:40:05.882Z,70.30
2022-07-28T20:42:32.685Z,69.30
2022-07-28T20:44:59.388Z,68.30
2022-07-28T20:47:27.797Z,68.20
2022-07-28T20:49:55.209Z,67.10
2022-07-28T20:52:22.196Z,67.30
2022-07-28T20:54:54.012Z,67.20
2022-07-28T20:57:21.729Z,66.80
2022-07-28T20:59:50.959Z,68.40
2022-07-28T21:02:18.650Z,69.90
2022-07-28T21:04:45.412Z,71.00
2022-07-28T21:07:12.167Z,71.70
2022-07-28T21:09:39.837Z,70.50
2022-07-28T21:12:07.264Z,70.00
2022-07-28T21:14:34.078Z,69.50
2022-07-28T21:17:00.960Z,69.80
2022-07-28T21:19:27.831Z,69.60
2022-07-28T21:21:54.596Z,70.40
2022-07-28T21:24:21.328Z,70.50
2022-07-28T21:26:49.688Z,70.60
2022-07-28T21:32:03.556Z,71.50
2022-07-28T21:34:31.387Z,71.40
2022-07-28T21:37:01.151Z,71.60
2022-07-28T21:39:28.305Z,72.00
2022-07-28T21:41:55.088Z,72.40
2022-07-28T21:44:21.854Z,73.00
2022-07-28T21:46:48.664Z,72.70
2022-07-28T21:49:15.445Z,73.30
2022-07-28T21:51:42.503Z,71.90
2022-07-28T21:54:09.308Z,71.90
2022-07-28T21:56:36.033Z,73.70
2022-07-28T21:59:02.977Z,73.00
2022-07-28T22:01:30.433Z,74.30
2022-07-28T22:03:57.533Z,77.00
2022-07-28T22:06:24.247Z,76.50
2022-07-28T22:08:53.858Z,77.50
2022-07-28T22:11:23.700Z,78.00
2022-07-28T22:13:50.577Z,77.60
2022-07-28T22:16:17.313Z,77.90
2022-07-28T22:18:44.322Z,76.90
2022-07-28T22:21:11.168Z,77.30
2022-07-28T22:23:37.901Z,77.60
2022-07-28T22:26:04.624Z,77.40
2022-07-28T22:28:31.498Z,76.70
2022-07-28T22:31:09.191Z,77.00
2022-07-28T22:33:40.175Z,76.80
2022-07-28T22:36:08.618Z,76.30
2022-07-28T22:38:35.872Z,76.00
2022-07-28T22:41:03.033Z,76.10
2022-07-28T22:43:33.025Z,76.40
2022-07-28T22:45:59.984Z,76.30
2022-07-28T22:48:26.891Z,76.10
2022-07-28T22:50:53.581Z,76.40
2022-07-28T22:53:20.293Z,76.80
2022-07-28T22:55:47.117Z,77.20
2022-07-28T22:58:13.896Z,77.80
2022-07-28T23:00:40.674Z,77.30
2022-07-28T23:03:07.539Z,77.10
2022-07-28T23:05:38.546Z,76.10
2022-07-28T23:08:06.216Z,76.50
2022-07-28T23:10:33.225Z,76.90
2022-07-28T23:13:00.290Z,77.50
2022-07-28T23:15:39.451Z,77.10
2022-07-28T23:18:11.752Z,77.50
2022-07-28T23:20:39.790Z,77.60
2022-07-28T23:23:07.097Z,77.10
2022-07-28T23:25:36.283Z,78.80
2022-07-28T23:28:03.443Z,78.20
2022-07-28T23:30:30.185Z,78.00
2022-07-28T23:32:56.915Z,76.80
2022-07-28T23:35:23.701Z,76.50
2022-07-28T23:37:50.471Z,76.20
2022-07-28T23:40:17.272Z,77.10
2022-07-28T23:42:44.082Z,77.20
2022-07-28T23:45:11.131Z,77.60
2022-07-28T23:47:37.906Z,78.20
2022-07-28T23:50:05.706Z,77.70
2022-07-28T23:52:32.516Z,76.70
2022-07-28T23:54:59.190Z,77.40
2022-07-28T23:57:31.112Z,77.20
2022-07-28T23:59:59.282Z,76.60
